createdAt,value
2022-10-19T00:01:16.271Z,50.88
2022-10-19T00:03:45.168Z,44.40
2022-10-19T00:06:25.041Z,60.35
2022-10-19T00:09:05.219Z,57.80
2022-10-19T00:11:33.011Z,61.10
2022-10-19T00:14:00.677Z,67.72
2022-10-19T00:16:29.913Z,62.97
2022-10-19T00:18:58.334Z,39.30
2022-10-19T00:21:25.879Z,53.05
2022-10-19T00:23:52.716Z,45.50
2022-10-19T00:26:19.580Z,43.00
2022-10-19T00:28:46.737Z,33.47
2022-10-19T00:31:17.137Z,27.83
2022-10-19T00:33:46.654Z,26.12
2022-10-19T00:36:34.209Z,53.47
2022-10-19T00:39:02.045Z,44.15
2022-10-19T00:41:31.204Z,31.33
2022-10-19T00:44:00.848Z,23.80
2022-10-19T00:46:30.370Z,26.83
2022-10-19T00:49:01.440Z,29.80
2022-10-19T00:51:29.506Z,28.75
2022-10-19T00:53:56.917Z,36.03
2022-10-19T00:56:24.444Z,27.70
2022-10-19T00:58:51.352Z,29.65
2022-10-19T01:01:20.696Z,36.10
2022-10-19T01:03:48.098Z,32.30
2022-10-19T01:06:17.584Z,27.77
2022-10-19T01:08:44.565Z,33.35
2022-10-19T01:11:39.054Z,31.95
2022-10-19T01:14:24.974Z,30.05
2022-10-19T01:17:14.113Z,36.47
2022-10-19T01:19:59.301Z,34.00
2022-10-19T01:22:55.422Z,25.65
2022-10-19T01:25:24.983Z,25.45
2022-10-19T01:28:16.144Z,24.77
2022-10-19T01:31:01.996Z,34.40
2022-10-19T01:33:39.788Z,31.42
2022-10-19T01:36:34.629Z,38.15
2022-10-19T01:39:25.085Z,26.33
2022-10-19T01:42:03.232Z,30.00
2022-10-19T01:44:45.477Z,38.45
2022-10-19T01:47:18.853Z,31.20
2022-10-19T01:50:10.454Z,31.35
2022-10-19T01:52:38.146Z,28.23
2022-10-19T01:55:05.752Z,23.27
2022-10-19T01:57:34.746Z,30.65
2022-10-19T02:00:07.360Z,27.80
2022-10-19T02:02:41.509Z,27.62
2022-10-19T02:05:08.869Z,34.85
2022-10-19T02:07:37.666Z,35.95
2022-10-19T02:10:04.974Z,29.45
2022-10-19T02:12:33.170Z,22.10
2022-10-19T02:15:06.497Z,26.90
2022-10-19T02:17:38.336Z,27.40
2022-10-19T02:20:05.710Z,27.98
2022-10-19T02:22:32.816Z,26.23
2022-10-19T02:25:00.280Z,24.30
2022-10-19T02:27:27.213Z,26.90
2022-10-19T02:29:54.278Z,23.83
2022-10-19T02:32:21.599Z,21.65
2022-10-19T02:34:48.465Z,29.60
2022-10-19T02:37:15.466Z,18.00
2022-10-19T02:39:42.644Z,21.30
2022-10-19T02:42:18.726Z,22.75
2022-10-19T02:44:53.354Z,20.40
2022-10-19T02:47:29.872Z,20.55
2022-10-19T02:49:56.963Z,23.30
2022-10-19T02:52:23.841Z,20.00
2022-10-19T02:54:50.676Z,21.15
2022-10-19T02:57:23.505Z,24.52
2022-10-19T02:59:51.037Z,23.17
2022-10-19T03:02:19.518Z,22.48
2022-10-19T03:07:18.098Z,26.40
2022-10-19T03:09:45.374Z,22.15
2022-10-19T03:12:12.850Z,26.45
2022-10-19T03:14:39.756Z,19.65
2022-10-19T03:17:06.929Z,18.05
2022-10-19T03:19:34.742Z,25.67
2022-10-19T03:22:01.693Z,15.60
2022-10-19T03:24:30.293Z,19.20
2022-10-19T03:26:57.168Z,22.65
2022-10-19T03:29:24.016Z,21.33
2022-10-19T03:31:51.390Z,21.10
2022-10-19T03:34:21.078Z,22.92
2022-10-19T03:36:50.986Z,28.58
2022-10-19T03:39:20.979Z,19.92
2022-10-19T03:41:47.817Z,23.10
2022-10-19T03:44:14.654Z,25.12
2022-10-19T03:46:41.797Z,33.47
2022-10-19T03:49:09.313Z,24.08
2022-10-19T03:51:36.392Z,23.90
2022-10-19T03:54:09.087Z,31.67
2022-10-19T03:56:36.436Z,23.62
2022-10-19T03:59:05.144Z,23.87
2022-10-19T04:01:43.893Z,24.67
2022-10-19T04:04:17.284Z,23.20
2022-10-19T04:06:45.909Z,32.90
2022-10-19T04:09:22.509Z,27.37
2022-10-19T04:11:52.248Z,30.30
2022-10-19T04:14:31.691Z,28.75
2022-10-19T04:17:01.031Z,23.15
2022-10-19T04:19:28.247Z,24.05
2022-10-19T04:21:55.205Z,23.10
2022-10-19T04:24:22.149Z,22.55
2022-10-19T04:26:54.354Z,28.40
2022-10-19T04:29:25.068Z,19.62
2022-10-19T04:31:55.117Z,28.17
2022-10-19T04:34:22.027Z,17.92
2022-10-19T04:36:53.065Z,23.00
2022-10-19T04:39:23.188Z,22.67
2022-10-19T04:41:50.021Z,21.95
2022-10-19T04:44:19.217Z,21.52
2022-10-19T04:46:48.434Z,21.48
2022-10-19T04:49:17.957Z,22.05
2022-10-19T04:51:50.088Z,27.48
2022-10-19T04:54:16.962Z,27.52
2022-10-19T04:56:43.803Z,24.55
2022-10-19T04:59:10.894Z,31.48
2022-10-19T05:01:38.243Z,26.20
2022-10-19T05:04:05.074Z,26.98
2022-10-19T05:06:32.375Z,26.50
2022-10-19T05:08:59.938Z,25.60
2022-10-19T05:11:27.194Z,23.65
2022-10-19T05:13:54.310Z,25.85
2022-10-19T05:16:22.791Z,25.77
2022-10-19T05:18:56.176Z,23.45
2022-10-19T05:21:23.393Z,27.75
2022-10-19T05:23:54.491Z,24.23
2022-10-19T05:26:23.551Z,27.27
2022-10-19T05:28:56.557Z,24.83
2022-10-19T05:31:26.028Z,24.12
2022-10-19T05:33:53.205Z,26.02
2022-10-19T05:36:25.523Z,25.52
2022-10-19T05:38:53.740Z,24.40
2022-10-19T05:41:21.601Z,23.87
2022-10-19T05:43:55.695Z,22.30
2022-10-19T05:46:23.167Z,22.08
2022-10-19T05:48:50.032Z,22.62
2022-10-19T05:51:19.700Z,37.08
2022-10-19T05:53:46.812Z,21.77
2022-10-19T05:56:18.666Z,23.27
2022-10-19T05:58:45.854Z,27.95
2022-10-19T06:01:13.998Z,25.62
2022-10-19T06:03:41.367Z,28.38
2022-10-19T06:06:09.249Z,27.92
2022-10-19T06:08:36.111Z,22.20
2022-10-19T06:11:12.927Z,18.95
2022-10-19T06:13:40.604Z,24.08
2022-10-19T06:16:08.917Z,21.75
2022-10-19T06:18:35.862Z,18.95
2022-10-19T06:21:04.496Z,23.98
2022-10-19T06:23:32.819Z,15.32
2022-10-19T06:26:02.735Z,18.73
2022-10-19T06:28:29.613Z,18.40
2022-10-19T06:30:58.187Z,21.73
2022-10-19T06:33:25.748Z,28.42
2022-10-19T06:35:52.753Z,19.95
2022-10-19T06:38:19.858Z,15.27
2022-10-19T06:40:46.738Z,22.77
2022-10-19T06:43:13.585Z,15.27
2022-10-19T06:45:40.793Z,14.50
2022-10-19T06:48:07.964Z,24.90
2022-10-19T06:50:35.419Z,15.18
2022-10-19T06:53:02.641Z,14.02
2022-10-19T06:55:29.509Z,11.00
2022-10-19T06:57:58.582Z,14.05
2022-10-19T07:00:25.754Z,15.30
2022-10-19T07:02:52.711Z,16.83
2022-10-19T07:05:19.710Z,13.73
2022-10-19T07:07:47.120Z,15.45
2022-10-19T07:10:13.976Z,10.65
2022-10-19T07:12:40.833Z,15.18
2022-10-19T07:15:08.393Z,13.27
2022-10-19T07:17:38.074Z,14.60
2022-10-19T07:20:05.352Z,12.00
2022-10-19T07:22:32.494Z,12.65
2022-10-19T07:24:59.351Z,11.38
2022-10-19T07:27:26.234Z,15.60
2022-10-19T07:29:53.336Z,15.73
2022-10-19T07:32:20.191Z,19.67
2022-10-19T07:34:47.362Z,12.80
2022-10-19T07:37:14.481Z,14.30
2022-10-19T07:39:41.337Z,14.93
2022-10-19T07:42:08.271Z,16.48
2022-10-19T07:44:35.535Z,15.10
2022-10-19T07:47:04.620Z,13.00
2022-10-19T07:49:31.479Z,12.23
2022-10-19T07:51:59.066Z,15.15
2022-10-19T07:54:27.411Z,14.75
2022-10-19T07:56:54.349Z,13.85
2022-10-19T07:59:21.462Z,10.05
2022-10-19T08:01:53.050Z,10.32
2022-10-19T08:07:10.838Z,8.60
2022-10-19T08:09:52.786Z,13.35
2022-10-19T08:12:20.634Z,15.45
2022-10-19T08:14:48.212Z,12.05
2022-10-19T08:17:17.601Z,9.30
2022-10-19T08:19:48.165Z,10.57
2022-10-19T08:22:15.355Z,12.37
2022-10-19T08:24:42.210Z,6.68
2022-10-19T08:27:09.217Z,14.80
2022-10-19T08:29:36.383Z,9.60
2022-10-19T08:32:06.114Z,11.05
2022-10-19T08:34:33.315Z,7.05
2022-10-19T08:37:06.771Z,8.07
2022-10-19T08:39:41.882Z,8.32
2022-10-19T08:42:16.483Z,8.23
2022-10-19T08:44:58.483Z,11.80
2022-10-19T08:47:28.506Z,7.37
2022-10-19T08:49:56.043Z,8.20
2022-10-19T08:52:30.748Z,7.03
2022-10-19T08:55:09.150Z,6.35
2022-10-19T08:57:52.978Z,7.70
2022-10-19T09:03:27.264Z,12.77
2022-10-19T09:06:44.853Z,5.10
2022-10-19T09:09:13.170Z,7.35
2022-10-19T09:11:43.191Z,4.70
2022-10-19T09:14:19.013Z,5.87
2022-10-19T09:16:46.421Z,7.57
2022-10-19T09:19:25.906Z,9.45
2022-10-19T09:21:57.513Z,5.65
2022-10-19T09:24:44.234Z,5.68
2022-10-19T09:27:21.256Z,7.45
2022-10-19T09:29:52.518Z,5.75
2022-10-19T09:32:24.683Z,8.68
2022-10-19T09:34:53.349Z,6.10
2022-10-19T09:37:25.939Z,17.02
2022-10-19T09:39:55.624Z,5.95
2022-10-19T09:42:26.403Z,7.18
2022-10-19T09:44:55.294Z,6.35
2022-10-19T09:47:37.673Z,10.00
2022-10-19T09:50:14.541Z,9.43
2022-10-19T09:52:43.897Z,7.93
2022-10-19T09:55:13.646Z,7.78
2022-10-19T09:57:43.972Z,3.35
2022-10-19T10:00:22.625Z,3.53
2022-10-19T10:02:54.507Z,4.47
2022-10-19T10:05:31.578Z,7.25
2022-10-19T10:07:58.768Z,4.03
2022-10-19T10:10:35.733Z,4.22
2022-10-19T10:13:03.131Z,4.07
2022-10-19T10:15:36.896Z,2.72
2022-10-19T10:18:04.117Z,3.15
2022-10-19T10:20:32.608Z,7.47
2022-10-19T10:23:05.919Z,2.53
2022-10-19T10:25:34.911Z,9.63
2022-10-19T10:28:21.824Z,3.03
2022-10-19T10:31:02.805Z,6.57
2022-10-19T10:33:44.216Z,3.75
2022-10-19T10:36:12.465Z,4.85
2022-10-19T10:38:49.546Z,2.90
2022-10-19T10:41:18.680Z,3.03
2022-10-19T10:43:57.552Z,4.00
2022-10-19T10:46:29.628Z,3.33
2022-10-19T10:49:02.436Z,3.55
2022-10-19T10:51:39.802Z,2.85
2022-10-19T10:54:25.582Z,5.30
2022-10-19T10:57:13.131Z,3.92
2022-10-19T10:59:49.146Z,3.45
2022-10-19T11:02:32.819Z,6.80
2022-10-19T11:05:07.701Z,4.87
2022-10-19T11:07:36.082Z,9.10
2022-10-19T11:10:30.588Z,1.83
2022-10-19T11:13:17.382Z,3.37
2022-10-19T11:15:53.099Z,2.20
2022-10-19T11:18:30.573Z,2.72
2022-10-19T11:21:12.062Z,3.03
2022-10-19T11:23:48.398Z,1.95
2022-10-19T11:26:25.129Z,4.75
2022-10-19T11:29:14.026Z,1.90
2022-10-19T11:31:49.232Z,6.28
2022-10-19T11:34:31.525Z,2.80
2022-10-19T11:37:23.128Z,4.72
2022-10-19T11:40:09.163Z,2.75
2022-10-19T11:43:15.573Z,5.10
2022-10-19T11:45:54.658Z,9.73
2022-10-19T11:48:28.287Z,4.75
2022-10-19T11:51:16.976Z,3.10
2022-10-19T11:53:54.811Z,8.10
2022-10-19T11:57:01.690Z,9.15
2022-10-19T11:59:32.076Z,2.20
2022-10-19T12:02:42.011Z,2.83
2022-10-19T12:05:20.102Z,5.07
2022-10-19T12:08:14.382Z,3.75
2022-10-19T12:10:48.545Z,1.67
2022-10-19T12:13:21.943Z,3.87
2022-10-19T12:15:53.915Z,2.05
2022-10-19T12:18:23.547Z,4.05
2022-10-19T12:20:52.454Z,5.75
2022-10-19T12:23:26.859Z,6.87
2022-10-19T12:25:56.607Z,1.85
2022-10-19T12:28:31.844Z,1.93
2022-10-19T12:31:00.037Z,3.30
2022-10-19T12:33:41.062Z,2.00
2022-10-19T12:36:26.680Z,4.60
2022-10-19T12:39:05.152Z,2.95
2022-10-19T12:41:54.042Z,4.05
2022-10-19T12:44:42.718Z,9.65
2022-10-19T12:47:19.558Z,8.13
2022-10-19T12:49:51.138Z,3.20
2022-10-19T12:52:40.039Z,4.45
2022-10-19T12:55:15.870Z,9.55
2022-10-19T12:57:47.980Z,1.92
2022-10-19T13:00:25.765Z,4.03
2022-10-19T13:03:17.422Z,1.77
2022-10-19T13:05:56.900Z,3.03
2022-10-19T13:08:33.132Z,3.37
2022-10-19T13:11:06.312Z,2.30
2022-10-19T13:14:24.918Z,10.35
2022-10-19T13:17:01.445Z,6.53
2022-10-19T13:19:29.311Z,3.85
2022-10-19T13:22:02.065Z,2.90
2022-10-19T13:24:34.810Z,4.53
2022-10-19T13:27:04.769Z,6.50
2022-10-19T13:29:38.397Z,3.78
2022-10-19T13:32:33.346Z,4.72
2022-10-19T13:35:27.120Z,2.50
2022-10-19T13:38:09.120Z,2.67
2022-10-19T13:40:55.978Z,2.62
2022-10-19T13:43:24.179Z,4.03
2022-10-19T13:45:59.253Z,2.83
2022-10-19T13:48:45.259Z,5.28
2022-10-19T13:51:40.560Z,5.40
2022-10-19T13:54:19.722Z,5.20
2022-10-19T13:57:09.415Z,5.32
2022-10-19T13:59:54.785Z,4.47
2022-10-19T14:03:09.329Z,10.48
2022-10-19T14:05:57.064Z,6.20
2022-10-19T14:08:30.081Z,4.87
2022-10-19T14:11:03.806Z,5.78
2022-10-19T14:13:31.273Z,4.90
2022-10-19T14:16:02.805Z,10.57
2022-10-19T14:18:34.526Z,7.97
2022-10-19T14:21:05.339Z,9.07
2022-10-19T14:23:39.760Z,9.70
2022-10-19T14:26:21.974Z,7.45
2022-10-19T14:28:54.181Z,5.45
2022-10-19T14:31:23.976Z,5.12
2022-10-19T14:33:52.389Z,7.10
2022-10-19T14:36:25.534Z,11.38
2022-10-19T14:38:56.303Z,9.52
2022-10-19T14:43:57.311Z,7.45
2022-10-19T14:46:30.406Z,10.32
2022-10-19T14:49:06.544Z,6.50
2022-10-19T14:51:40.945Z,6.47
2022-10-19T14:54:23.404Z,7.62
2022-10-19T14:56:56.377Z,6.82
2022-10-19T14:59:27.019Z,7.05
2022-10-19T15:01:56.262Z,7.18
2022-10-19T15:04:32.712Z,4.43
2022-10-19T15:07:01.479Z,8.02
2022-10-19T15:09:43.712Z,9.68
2022-10-19T15:12:16.973Z,23.42
2022-10-19T15:14:44.461Z,11.00
2022-10-19T15:17:25.304Z,25.02
2022-10-19T15:19:53.587Z,8.57
2022-10-19T15:22:28.094Z,5.00
2022-10-19T15:24:59.926Z,13.77
2022-10-19T15:27:50.050Z,12.40
2022-10-19T15:30:17.142Z,7.60
2022-10-19T15:32:45.667Z,10.45
2022-10-19T15:35:20.046Z,9.63
2022-10-19T15:37:48.695Z,6.85
2022-10-19T15:40:36.245Z,8.57
2022-10-19T15:43:25.066Z,13.07
2022-10-19T15:46:03.295Z,9.70
2022-10-19T15:48:42.886Z,8.40
2022-10-19T15:51:24.829Z,5.87
2022-10-19T15:53:52.621Z,6.25
2022-10-19T15:56:20.169Z,7.62
2022-10-19T15:58:51.426Z,17.80
2022-10-19T16:01:22.516Z,9.02
2022-10-19T16:03:49.767Z,14.40
2022-10-19T16:06:17.738Z,16.12
2022-10-19T16:08:46.418Z,11.00
2022-10-19T16:11:18.101Z,14.68
2022-10-19T16:13:45.526Z,21.15
2022-10-19T16:16:15.635Z,16.48
2022-10-19T16:18:42.744Z,13.02
2022-10-19T16:21:09.610Z,9.85
2022-10-19T16:23:41.812Z,12.55
2022-10-19T16:26:09.846Z,14.48
2022-10-19T16:28:36.721Z,14.05
2022-10-19T16:31:03.639Z,13.73
2022-10-19T16:33:30.750Z,15.95
2022-10-19T16:35:57.607Z,12.75
2022-10-19T16:38:24.520Z,13.93
2022-10-19T16:40:51.716Z,8.95
2022-10-19T16:43:18.621Z,14.57
2022-10-19T16:45:45.484Z,21.45
2022-10-19T16:48:12.847Z,14.25
2022-10-19T16:50:39.775Z,11.07
2022-10-19T16:53:10.339Z,10.40
2022-10-19T16:55:38.278Z,12.00
2022-10-19T16:58:05.539Z,11.65
2022-10-19T17:00:32.939Z,12.05
2022-10-19T17:03:00.047Z,10.70
2022-10-19T17:05:26.957Z,10.70
2022-10-19T17:07:53.847Z,18.92
2022-10-19T17:10:21.046Z,14.55
2022-10-19T17:12:47.967Z,16.85
2022-10-19T17:15:44.697Z,15.90
2022-10-19T17:18:01.935Z,14.18
2022-10-19T17:20:29.030Z,11.38
2022-10-19T17:22:55.899Z,15.77
2022-10-19T17:25:23.026Z,7.12
2022-10-19T17:27:50.894Z,7.75
2022-10-19T17:30:18.039Z,8.35
2022-10-19T17:32:45.159Z,11.32
2022-10-19T17:35:12.011Z,8.00
2022-10-19T17:37:38.929Z,8.82
2022-10-19T17:40:06.651Z,11.90
2022-10-19T17:42:36.522Z,13.30
2022-10-19T17:45:03.570Z,14.98
2022-10-19T17:47:30.773Z,13.15
2022-10-19T17:49:57.695Z,10.40
2022-10-19T17:52:24.576Z,11.15
2022-10-19T17:55:11.097Z,11.93
2022-10-19T17:57:38.588Z,9.98
2022-10-19T18:00:07.214Z,12.23
2022-10-19T18:02:39.824Z,11.02
2022-10-19T18:05:07.327Z,10.02
2022-10-19T18:07:34.427Z,8.93
2022-10-19T18:10:01.602Z,7.25
2022-10-19T18:12:28.734Z,9.15
2022-10-19T18:14:55.585Z,10.88
2022-10-19T18:17:25.439Z,13.73
2022-10-19T18:19:54.872Z,9.18
2022-10-19T18:22:21.869Z,9.02
2022-10-19T18:24:49.554Z,5.12
2022-10-19T18:27:16.675Z,9.35
2022-10-19T18:29:43.551Z,10.25
2022-10-19T18:32:11.712Z,6.22
2022-10-19T18:34:38.852Z,10.68
2022-10-19T18:37:07.210Z,7.40
2022-10-19T18:39:34.175Z,6.15
2022-10-19T18:42:01.269Z,7.35
2022-10-19T18:44:30.419Z,8.07
2022-10-19T18:46:59.481Z,9.30
2022-10-19T18:49:26.655Z,9.23
2022-10-19T18:51:55.470Z,8.75
2022-10-19T18:54:24.101Z,9.20
2022-10-19T18:56:51.228Z,7.43
2022-10-19T18:59:20.728Z,8.27
2022-10-19T19:01:47.637Z,7.72
2022-10-19T19:04:16.330Z,19.67
2022-10-19T19:06:43.198Z,9.15
2022-10-19T19:09:11.264Z,10.13
2022-10-19T19:11:40.846Z,10.35
2022-10-19T19:14:10.589Z,9.43
2022-10-19T19:16:38.551Z,19.55
2022-10-19T19:19:06.394Z,8.98
2022-10-19T19:21:35.007Z,8.70
2022-10-19T19:24:03.976Z,8.27
2022-10-19T19:26:33.503Z,7.75
2022-10-19T19:29:00.378Z,13.02
2022-10-19T19:31:27.256Z,7.37
2022-10-19T19:33:54.381Z,13.25
2022-10-19T19:36:21.419Z,8.75
2022-10-19T19:38:50.637Z,17.30
2022-10-19T19:41:17.835Z,12.55
2022-10-19T19:43:44.822Z,12.20
2022-10-19T19:46:14.551Z,11.57
2022-10-19T19:48:43.125Z,10.52
2022-10-19T19:51:17.902Z,10.50
2022-10-19T19:53:46.119Z,11.40
2022-10-19T19:56:14.290Z,7.82
2022-10-19T19:58:42.108Z,11.68
2022-10-19T20:01:17.074Z,9.38
2022-10-19T20:03:45.788Z,8.13
2022-10-19T20:06:14.285Z,6.43
2022-10-19T20:08:41.229Z,5.93
2022-10-19T20:11:10.967Z,8.57
2022-10-19T20:13:38.279Z,5.35
2022-10-19T20:16:16.314Z,8.05
2022-10-19T20:18:45.147Z,5.60
2022-10-19T20:21:12.698Z,8.30
2022-10-19T20:23:39.609Z,7.07
2022-10-19T20:26:09.011Z,8.98
2022-10-19T20:28:35.847Z,9.50
2022-10-19T20:31:07.626Z,7.97
2022-10-19T20:33:37.378Z,4.85
2022-10-19T20:36:06.478Z,5.50
2022-10-19T20:38:34.491Z,6.00
2022-10-19T20:41:08.047Z,8.25
2022-10-19T20:43:36.573Z,7.62
2022-10-19T20:46:12.726Z,7.65
2022-10-19T20:48:40.367Z,8.63
2022-10-19T20:51:12.053Z,5.97
2022-10-19T20:53:39.154Z,8.52
2022-10-19T20:56:07.838Z,8.18
2022-10-19T20:58:35.917Z,9.15
2022-10-19T21:01:06.991Z,8.52
2022-10-19T21:03:34.110Z,8.80
2022-10-19T21:06:08.484Z,7.35
2022-10-19T21:08:36.479Z,13.15
2022-10-19T21:11:18.428Z,7.07
2022-10-19T21:13:46.100Z,7.87
2022-10-19T21:16:17.751Z,7.35
2022-10-19T21:18:45.535Z,4.95
2022-10-19T21:21:24.097Z,7.57
2022-10-19T21:23:54.269Z,6.68
2022-10-19T21:26:21.609Z,11.70
2022-10-19T21:28:49.833Z,9.00
2022-10-19T21:31:17.310Z,5.70
2022-10-19T21:33:44.830Z,4.68
2022-10-19T21:36:12.889Z,5.05
2022-10-19T21:38:40.226Z,6.45
2022-10-19T21:41:15.171Z,4.57
2022-10-19T21:43:42.576Z,3.47
2022-10-19T21:46:17.726Z,5.93
2022-10-19T21:48:44.965Z,5.05
2022-10-19T21:51:29.786Z,5.82
2022-10-19T21:53:56.744Z,6.00
2022-10-19T21:56:23.922Z,6.80
2022-10-19T21:58:53.270Z,4.43
2022-10-19T22:01:22.870Z,5.05
2022-10-19T22:03:50.305Z,8.10
2022-10-19T22:06:17.210Z,5.87
2022-10-19T22:08:45.871Z,5.40
2022-10-19T22:11:13.638Z,3.17
2022-10-19T22:13:41.391Z,6.20
2022-10-19T22:16:11.343Z,5.90
2022-10-19T22:18:38.475Z,7.00
2022-10-19T22:21:07.312Z,6.07
2022-10-19T22:23:34.194Z,4.65
2022-10-19T22:26:01.310Z,7.50
2022-10-19T22:28:28.510Z,5.47
2022-10-19T22:30:58.980Z,4.47
2022-10-19T22:35:57.154Z,3.90
2022-10-19T22:38:24.738Z,4.60
2022-10-19T22:40:51.858Z,9.00
2022-10-19T22:43:19.378Z,6.65
2022-10-19T22:45:47.769Z,5.18
2022-10-19T22:48:16.104Z,6.53
2022-10-19T22:50:43.438Z,10.90
2022-10-19T22:53:10.826Z,3.60
2022-10-19T22:55:38.419Z,8.20
2022-10-19T22:58:06.744Z,4.05
2022-10-19T23:00:33.687Z,5.03
2022-10-19T23:03:00.878Z,5.82
2022-10-19T23:05:27.796Z,3.85
2022-10-19T23:07:54.682Z,5.90
2022-10-19T23:10:21.878Z,7.07
2022-10-19T23:12:50.486Z,8.75
2022-10-19T23:15:17.827Z,5.87
2022-10-19T23:17:45.018Z,5.43
2022-10-19T23:20:12.728Z,5.18
2022-10-19T23:22:40.170Z,4.55
2022-10-19T23:25:07.705Z,4.15
2022-10-19T23:27:34.796Z,3.97
2022-10-19T23:30:02.471Z,8.63
2022-10-19T23:32:29.643Z,6.22
2022-10-19T23:34:56.843Z,7.90
2022-10-19T23:37:23.732Z,5.28
2022-10-19T23:39:50.864Z,4.12
2022-10-19T23:42:17.742Z,4.30
2022-10-19T23:44:44.580Z,4.45
2022-10-19T23:47:11.693Z,5.47
2022-10-19T23:49:38.547Z,5.20
2022-10-19T23:52:05.509Z,7.80
2022-10-19T23:54:32.714Z,8.60
2022-10-19T23:56:59.681Z,5.43
2022-10-19T23:59:26.527Z,7.32
